• Join FlightAware (Why Join?)
  • Login
  • US Flag 
02:50PM EST


 

Airport Tracker/Info


-or-


 

Live Flight TrackerFlight Track Log ✈ SAS4185 ✈ 18-May-2012 ✈ ENBR / BGO - ENZV / SVG

Flight Track Log - Related Links

Times and Time Zones

All times are in EDT time to prevent confusion due to time zone crossing. See the SAS4185 flight status page for this flight to view local times or setup timezone preferences in your user account.

Time Position Orientation Groundspeed Altitude Reporting Facility
EDT Latitude Longitude Course Direction KTS MPH feet Rate Location/Type
12:56PM 60.1729 5.2553 171° South  Level Estimated
12:57PM 60.0942 5.2793 171° South  Level Estimated
12:58PM 60.0156 5.3033 171° South  Level Estimated
12:59PM 59.9370 5.3271 171° South  Level Estimated
01:00PM 59.8584 5.3508 171° South  Level Estimated
01:01PM 59.7798 5.3744 171° South  Level Estimated
01:02PM 59.7011 5.3979 171° South  Level Estimated
01:03PM 59.6225 5.4213 171° South  Level Estimated
01:04PM 59.5439 5.4446 171° South  Level Estimated
01:05PM 59.4652 5.4678 172° South  Level Estimated
01:06PM 59.3866 5.4908 172° South  Level Estimated
01:07PM 59.3079 5.5138 172° South  Level Estimated
01:08PM 59.2293 5.5366 172° South  Level Estimated
01:09PM 59.1506 5.5594 172° South  Level Estimated
01:10PM 59.0719 5.5820 172° South  Level Estimated
01:11PM 58.9933 5.6046 172° South  Level Estimated
01:12PM 58.9146 5.6270 172° South  Level Estimated
01:13PM 58.8359 5.6493 352° North  Level Estimated
01:14PM 58.9146 5.6270 172° South  Level Estimated
01:15PM 58.8359 5.6493 352° North  Level Estimated
01:16PM 58.9146 5.6270 172° South  Level Estimated
01:17PM 58.8359 5.6493 352° North  Level Estimated
01:18PM 58.9146 5.6270 172° South  Level Estimated
01:19PM 58.8359 5.6493 352° North  Level Estimated
01:20PM 58.9146 5.6270 172° South  Level Estimated
01:21PM 58.8359 5.6493 172° South  Level Estimated